sensor_id;sensor_type;location;lat;lon;timestamp;P1;durP1;ratioP1;P2;durP2;ratioP2
17214;SDS011;8723;51.502;6.918;2024-01-30T00:01:41;10.57;;;9.50;;
17214;SDS011;8723;51.502;6.918;2024-01-30T00:04:08;10.77;;;9.67;;
17214;SDS011;8723;51.502;6.918;2024-01-30T00:06:36;10.87;;;9.80;;
17214;SDS011;8723;51.502;6.918;2024-01-30T00:09:05;10.30;;;9.20;;
17214;SDS011;8723;51.502;6.918;2024-01-30T00:11:33;10.27;;;9.33;;
17214;SDS011;8723;51.502;6.918;2024-01-30T00:14:00;10.60;;;9.53;;
17214;SDS011;8723;51.502;6.918;2024-01-30T00:16:28;10.43;;;9.43;;
17214;SDS011;8723;51.502;6.918;2024-01-30T00:18:55;9.83;;;8.93;;
17214;SDS011;8723;51.502;6.918;2024-01-30T00:21:22;9.97;;;8.97;;
17214;SDS011;8723;51.502;6.918;2024-01-30T00:23:50;10.27;;;9.27;;
17214;SDS011;8723;51.502;6.918;2024-01-30T00:26:17;10.73;;;9.70;;
17214;SDS011;8723;51.502;6.918;2024-01-30T00:28:45;12.07;;;9.87;;
17214;SDS011;8723;51.502;6.918;2024-01-30T00:31:12;13.53;;;10.57;;
17214;SDS011;8723;51.502;6.918;2024-01-30T00:33:40;11.23;;;10.27;;
17214;SDS011;8723;51.502;6.918;2024-01-30T00:36:07;11.17;;;10.00;;
17214;SDS011;8723;51.502;6.918;2024-01-30T00:38:35;10.80;;;9.80;;
17214;SDS011;8723;51.502;6.918;2024-01-30T00:41:02;11.93;;;10.73;;
17214;SDS011;8723;51.502;6.918;2024-01-30T00:43:29;11.27;;;9.70;;
17214;SDS011;8723;51.502;6.918;2024-01-30T00:45:58;10.93;;;9.93;;
17214;SDS011;8723;51.502;6.918;2024-01-30T00:48:25;11.87;;;10.33;;
17214;SDS011;8723;51.502;6.918;2024-01-30T00:50:52;10.90;;;9.90;;
17214;SDS011;8723;51.502;6.918;2024-01-30T00:53:19;11.70;;;10.50;;
17214;SDS011;8723;51.502;6.918;2024-01-30T00:55:46;11.03;;;10.03;;
17214;SDS011;8723;51.502;6.918;2024-01-30T00:58:14;11.83;;;10.53;;
17214;SDS011;8723;51.502;6.918;2024-01-30T01:00:41;12.30;;;11.00;;
17214;SDS011;8723;51.502;6.918;2024-01-30T01:03:10;11.63;;;10.43;;
17214;SDS011;8723;51.502;6.918;2024-01-30T01:05:39;12.37;;;10.17;;
17214;SDS011;8723;51.502;6.918;2024-01-30T01:08:06;12.17;;;10.97;;
17214;SDS011;8723;51.502;6.918;2024-01-30T01:10:34;10.67;;;9.57;;
17214;SDS011;8723;51.502;6.918;2024-01-30T01:13:01;10.73;;;9.77;;
17214;SDS011;8723;51.502;6.918;2024-01-30T01:15:28;10.67;;;9.67;;
17214;SDS011;8723;51.502;6.918;2024-01-30T01:17:55;11.10;;;10.10;;
17214;SDS011;8723;51.502;6.918;2024-01-30T01:20:23;12.10;;;10.80;;
17214;SDS011;8723;51.502;6.918;2024-01-30T01:22:50;11.43;;;10.43;;
17214;SDS011;8723;51.502;6.918;2024-01-30T01:25:19;11.37;;;10.27;;
17214;SDS011;8723;51.502;6.918;2024-01-30T01:27:46;14.07;;;12.03;;
17214;SDS011;8723;51.502;6.918;2024-01-30T01:30:16;12.70;;;11.40;;
17214;SDS011;8723;51.502;6.918;2024-01-30T01:32:47;12.68;;;11.30;;
17214;SDS011;8723;51.502;6.918;2024-01-30T01:35:19;14.67;;;10.83;;
17214;SDS011;8723;51.502;6.918;2024-01-30T01:37:49;12.20;;;10.57;;
17214;SDS011;8723;51.502;6.918;2024-01-30T01:40:19;11.97;;;10.77;;
17214;SDS011;8723;51.502;6.918;2024-01-30T01:42:47;12.37;;;11.10;;
17214;SDS011;8723;51.502;6.918;2024-01-30T01:45:14;14.73;;;11.53;;
17214;SDS011;8723;51.502;6.918;2024-01-30T01:47:41;11.47;;;10.27;;
17214;SDS011;8723;51.502;6.918;2024-01-30T01:50:10;11.23;;;10.13;;
17214;SDS011;8723;51.502;6.918;2024-01-30T01:52:38;12.07;;;11.03;;
17214;SDS011;8723;51.502;6.918;2024-01-30T01:55:07;10.87;;;9.63;;
17214;SDS011;8723;51.502;6.918;2024-01-30T01:57:34;12.57;;;11.37;;
17214;SDS011;8723;51.502;6.918;2024-01-30T02:00:01;11.33;;;10.27;;
17214;SDS011;8723;51.502;6.918;2024-01-30T02:02:30;10.50;;;9.60;;
17214;SDS011;8723;51.502;6.918;2024-01-30T02:04:57;12.10;;;11.00;;
17214;SDS011;8723;51.502;6.918;2024-01-30T02:07:25;12.83;;;11.47;;
17214;SDS011;8723;51.502;6.918;2024-01-30T02:09:52;11.30;;;10.20;;
17214;SDS011;8723;51.502;6.918;2024-01-30T02:12:20;12.57;;;11.40;;
17214;SDS011;8723;51.502;6.918;2024-01-30T02:14:48;12.87;;;10.97;;
17214;SDS011;8723;51.502;6.918;2024-01-30T02:17:15;11.70;;;10.60;;
17214;SDS011;8723;51.502;6.918;2024-01-30T02:19:43;11.83;;;10.63;;
17214;SDS011;8723;51.502;6.918;2024-01-30T02:22:11;11.80;;;10.67;;
17214;SDS011;8723;51.502;6.918;2024-01-30T02:24:38;11.53;;;10.53;;
17214;SDS011;8723;51.502;6.918;2024-01-30T02:27:05;11.57;;;10.47;;
17214;SDS011;8723;51.502;6.918;2024-01-30T02:29:32;11.90;;;10.73;;
17214;SDS011;8723;51.502;6.918;2024-01-30T02:31:59;10.63;;;9.63;;
17214;SDS011;8723;51.502;6.918;2024-01-30T02:34:26;11.47;;;10.30;;
17214;SDS011;8723;51.502;6.918;2024-01-30T02:36:54;13.43;;;10.53;;
17214;SDS011;8723;51.502;6.918;2024-01-30T02:39:22;11.07;;;9.97;;
17214;SDS011;8723;51.502;6.918;2024-01-30T02:41:50;12.63;;;11.30;;
17214;SDS011;8723;51.502;6.918;2024-01-30T02:44:20;11.87;;;10.67;;
17214;SDS011;8723;51.502;6.918;2024-01-30T02:46:48;12.83;;;11.53;;
17214;SDS011;8723;51.502;6.918;2024-01-30T02:49:17;11.87;;;10.67;;
17214;SDS011;8723;51.502;6.918;2024-01-30T02:51:46;10.83;;;9.83;;
17214;SDS011;8723;51.502;6.918;2024-01-30T02:54:15;12.23;;;11.03;;
17214;SDS011;8723;51.502;6.918;2024-01-30T02:56:46;11.07;;;9.97;;
17214;SDS011;8723;51.502;6.918;2024-01-30T02:59:16;12.63;;;10.40;;
17214;SDS011;8723;51.502;6.918;2024-01-30T03:01:45;11.13;;;10.13;;
17214;SDS011;8723;51.502;6.918;2024-01-30T03:04:14;11.13;;;10.03;;
17214;SDS011;8723;51.502;6.918;2024-01-30T03:06:45;11.93;;;10.07;;
17214;SDS011;8723;51.502;6.918;2024-01-30T03:09:16;11.37;;;10.37;;
17214;SDS011;8723;51.502;6.918;2024-01-30T03:11:47;12.50;;;10.83;;
17214;SDS011;8723;51.502;6.918;2024-01-30T03:14:16;11.13;;;10.03;;
17214;SDS011;8723;51.502;6.918;2024-01-30T03:16:45;11.00;;;9.90;;
17214;SDS011;8723;51.502;6.918;2024-01-30T03:19:14;10.40;;;9.60;;
17214;SDS011;8723;51.502;6.918;2024-01-30T03:21:44;12.10;;;10.27;;
17214;SDS011;8723;51.502;6.918;2024-01-30T03:24:13;11.03;;;9.93;;
17214;SDS011;8723;51.502;6.918;2024-01-30T03:26:43;10.43;;;9.50;;
17214;SDS011;8723;51.502;6.918;2024-01-30T03:29:14;10.93;;;9.90;;
17214;SDS011;8723;51.502;6.918;2024-01-30T03:31:43;11.10;;;10.13;;
17214;SDS011;8723;51.502;6.918;2024-01-30T03:34:13;11.43;;;10.30;;
17214;SDS011;8723;51.502;6.918;2024-01-30T03:36:42;11.20;;;10.07;;
17214;SDS011;8723;51.502;6.918;2024-01-30T03:39:11;12.50;;;9.47;;
17214;SDS011;8723;51.502;6.918;2024-01-30T03:41:42;10.90;;;9.80;;
17214;SDS011;8723;51.502;6.918;2024-01-30T03:44:13;10.70;;;9.60;;
17214;SDS011;8723;51.502;6.918;2024-01-30T03:46:43;11.03;;;10.00;;
17214;SDS011;8723;51.502;6.918;2024-01-30T03:49:12;10.90;;;9.80;;
17214;SDS011;8723;51.502;6.918;2024-01-30T03:51:41;10.77;;;9.87;;
17214;SDS011;8723;51.502;6.918;2024-01-30T03:54:10;10.63;;;9.63;;
17214;SDS011;8723;51.502;6.918;2024-01-30T03:56:39;11.00;;;9.87;;
17214;SDS011;8723;51.502;6.918;2024-01-30T03:59:08;12.37;;;10.83;;
17214;SDS011;8723;51.502;6.918;2024-01-30T04:01:39;10.93;;;9.93;;
17214;SDS011;8723;51.502;6.918;2024-01-30T04:04:08;11.57;;;9.90;;
17214;SDS011;8723;51.502;6.918;2024-01-30T04:06:37;11.47;;;10.33;;
17214;SDS011;8723;51.502;6.918;2024-01-30T04:09:05;11.00;;;9.90;;
17214;SDS011;8723;51.502;6.918;2024-01-30T04:11:35;10.70;;;9.70;;
17214;SDS011;8723;51.502;6.918;2024-01-30T04:14:04;11.03;;;9.27;;
17214;SDS011;8723;51.502;6.918;2024-01-30T04:16:32;11.03;;;9.93;;
17214;SDS011;8723;51.502;6.918;2024-01-30T04:19:00;13.00;;;10.47;;
17214;SDS011;8723;51.502;6.918;2024-01-30T04:21:28;11.43;;;10.27;;
17214;SDS011;8723;51.502;6.918;2024-01-30T04:23:55;12.73;;;11.43;;
17214;SDS011;8723;51.502;6.918;2024-01-30T04:26:22;12.43;;;10.97;;
17214;SDS011;8723;51.502;6.918;2024-01-30T04:28:49;11.93;;;10.80;;
17214;SDS011;8723;51.502;6.918;2024-01-30T04:31:16;11.67;;;10.57;;
17214;SDS011;8723;51.502;6.918;2024-01-30T04:33:43;12.20;;;11.00;;
17214;SDS011;8723;51.502;6.918;2024-01-30T04:36:11;11.57;;;10.57;;
17214;SDS011;8723;51.502;6.918;2024-01-30T04:38:39;11.30;;;10.27;;
17214;SDS011;8723;51.502;6.918;2024-01-30T04:41:06;11.13;;;10.13;;
17214;SDS011;8723;51.502;6.918;2024-01-30T04:43:33;11.83;;;10.50;;
17214;SDS011;8723;51.502;6.918;2024-01-30T04:46:00;11.73;;;10.53;;
17214;SDS011;8723;51.502;6.918;2024-01-30T04:48:28;12.10;;;10.53;;
17214;SDS011;8723;51.502;6.918;2024-01-30T04:50:55;11.00;;;9.87;;
17214;SDS011;8723;51.502;6.918;2024-01-30T04:53:23;10.80;;;9.80;;
17214;SDS011;8723;51.502;6.918;2024-01-30T04:55:50;11.77;;;10.67;;
17214;SDS011;8723;51.502;6.918;2024-01-30T04:58:17;11.40;;;10.30;;
17214;SDS011;8723;51.502;6.918;2024-01-30T05:00:45;10.53;;;9.43;;
17214;SDS011;8723;51.502;6.918;2024-01-30T05:03:16;11.80;;;10.30;;
17214;SDS011;8723;51.502;6.918;2024-01-30T05:05:43;11.20;;;9.93;;
17214;SDS011;8723;51.502;6.918;2024-01-30T05:08:10;12.23;;;10.67;;
17214;SDS011;8723;51.502;6.918;2024-01-30T05:10:39;10.77;;;9.77;;
17214;SDS011;8723;51.502;6.918;2024-01-30T05:13:06;10.73;;;9.60;;
17214;SDS011;8723;51.502;6.918;2024-01-30T05:15:33;11.07;;;9.73;;
17214;SDS011;8723;51.502;6.918;2024-01-30T05:18:00;11.37;;;10.27;;
17214;SDS011;8723;51.502;6.918;2024-01-30T05:20:27;12.57;;;9.90;;
17214;SDS011;8723;51.502;6.918;2024-01-30T05:22:55;10.20;;;9.30;;
17214;SDS011;8723;51.502;6.918;2024-01-30T05:25:22;9.63;;;8.73;;
17214;SDS011;8723;51.502;6.918;2024-01-30T05:27:50;10.93;;;9.87;;
17214;SDS011;8723;51.502;6.918;2024-01-30T05:30:17;10.77;;;9.63;;
17214;SDS011;8723;51.502;6.918;2024-01-30T05:32:45;10.63;;;9.63;;
17214;SDS011;8723;51.502;6.918;2024-01-30T05:35:12;9.53;;;8.63;;
17214;SDS011;8723;51.502;6.918;2024-01-30T05:37:39;11.63;;;9.77;;
17214;SDS011;8723;51.502;6.918;2024-01-30T05:40:06;10.73;;;9.73;;
17214;SDS011;8723;51.502;6.918;2024-01-30T05:42:34;10.37;;;9.27;;
17214;SDS011;8723;51.502;6.918;2024-01-30T05:45:03;10.43;;;9.43;;
17214;SDS011;8723;51.502;6.918;2024-01-30T05:47:30;10.27;;;9.27;;
17214;SDS011;8723;51.502;6.918;2024-01-30T05:49:57;10.10;;;9.13;;
17214;SDS011;8723;51.502;6.918;2024-01-30T05:52:24;8.63;;;7.83;;
17214;SDS011;8723;51.502;6.918;2024-01-30T05:54:51;10.23;;;9.23;;
17214;SDS011;8723;51.502;6.918;2024-01-30T05:57:18;9.80;;;8.90;;
17214;SDS011;8723;51.502;6.918;2024-01-30T05:59:45;10.07;;;8.87;;
17214;SDS011;8723;51.502;6.918;2024-01-30T06:02:14;10.10;;;9.20;;
17214;SDS011;8723;51.502;6.918;2024-01-30T06:04:41;9.77;;;8.87;;
17214;SDS011;8723;51.502;6.918;2024-01-30T06:07:09;10.60;;;9.60;;
17214;SDS011;8723;51.502;6.918;2024-01-30T06:09:36;13.00;;;9.10;;
17214;SDS011;8723;51.502;6.918;2024-01-30T06:12:04;9.30;;;8.50;;
17214;SDS011;8723;51.502;6.918;2024-01-30T06:14:32;9.83;;;8.83;;
17214;SDS011;8723;51.502;6.918;2024-01-30T06:16:59;10.40;;;9.23;;
17214;SDS011;8723;51.502;6.918;2024-01-30T06:19:27;9.53;;;8.57;;
17214;SDS011;8723;51.502;6.918;2024-01-30T06:21:54;9.77;;;8.40;;
17214;SDS011;8723;51.502;6.918;2024-01-30T06:24:21;9.63;;;8.77;;
17214;SDS011;8723;51.502;6.918;2024-01-30T06:26:48;11.40;;;10.13;;
17214;SDS011;8723;51.502;6.918;2024-01-30T06:29:16;9.03;;;8.23;;
17214;SDS011;8723;51.502;6.918;2024-01-30T06:31:43;10.30;;;9.00;;
17214;SDS011;8723;51.502;6.918;2024-01-30T06:34:10;9.53;;;8.63;;
17214;SDS011;8723;51.502;6.918;2024-01-30T06:36:39;9.63;;;8.73;;
17214;SDS011;8723;51.502;6.918;2024-01-30T06:39:06;11.13;;;9.47;;
17214;SDS011;8723;51.502;6.918;2024-01-30T06:41:34;9.67;;;8.67;;
17214;SDS011;8723;51.502;6.918;2024-01-30T06:44:01;9.53;;;8.63;;
17214;SDS011;8723;51.502;6.918;2024-01-30T06:46:29;9.17;;;8.37;;
17214;SDS011;8723;51.502;6.918;2024-01-30T06:48:57;9.63;;;8.80;;
17214;SDS011;8723;51.502;6.918;2024-01-30T06:51:24;9.13;;;8.23;;
17214;SDS011;8723;51.502;6.918;2024-01-30T06:53:53;8.97;;;8.07;;
17214;SDS011;8723;51.502;6.918;2024-01-30T06:56:20;8.87;;;8.07;;
17214;SDS011;8723;51.502;6.918;2024-01-30T06:58:47;10.13;;;8.87;;
17214;SDS011;8723;51.502;6.918;2024-01-30T07:01:14;9.30;;;8.40;;
17214;SDS011;8723;51.502;6.918;2024-01-30T07:03:42;9.47;;;8.57;;
17214;SDS011;8723;51.502;6.918;2024-01-30T07:06:09;9.00;;;8.10;;
17214;SDS011;8723;51.502;6.918;2024-01-30T07:08:37;9.50;;;8.60;;
17214;SDS011;8723;51.502;6.918;2024-01-30T07:11:06;9.67;;;8.67;;
17214;SDS011;8723;51.502;6.918;2024-01-30T07:13:34;9.33;;;8.43;;
17214;SDS011;8723;51.502;6.918;2024-01-30T07:16:01;9.30;;;8.53;;
17214;SDS011;8723;51.502;6.918;2024-01-30T07:18:28;9.13;;;8.33;;
17214;SDS011;8723;51.502;6.918;2024-01-30T07:20:55;8.43;;;7.50;;
17214;SDS011;8723;51.502;6.918;2024-01-30T07:23:22;9.60;;;8.80;;
17214;SDS011;8723;51.502;6.918;2024-01-30T07:25:49;9.77;;;8.87;;
17214;SDS011;8723;51.502;6.918;2024-01-30T07:28:18;9.73;;;8.83;;
17214;SDS011;8723;51.502;6.918;2024-01-30T07:30:45;9.97;;;9.00;;
17214;SDS011;8723;51.502;6.918;2024-01-30T07:33:13;10.70;;;8.60;;
17214;SDS011;8723;51.502;6.918;2024-01-30T07:35:40;10.63;;;8.33;;
17214;SDS011;8723;51.502;6.918;2024-01-30T07:38:07;9.77;;;8.87;;
17214;SDS011;8723;51.502;6.918;2024-01-30T07:40:34;11.37;;;8.47;;
17214;SDS011;8723;51.502;6.918;2024-01-30T07:43:01;9.40;;;8.60;;
17214;SDS011;8723;51.502;6.918;2024-01-30T07:45:30;10.77;;;8.70;;
17214;SDS011;8723;51.502;6.918;2024-01-30T07:47:58;9.30;;;8.50;;
17214;SDS011;8723;51.502;6.918;2024-01-30T07:50:25;9.77;;;8.73;;
17214;SDS011;8723;51.502;6.918;2024-01-30T07:52:52;9.43;;;8.00;;
17214;SDS011;8723;51.502;6.918;2024-01-30T07:55:20;9.93;;;9.03;;
17214;SDS011;8723;51.502;6.918;2024-01-30T07:57:49;9.70;;;8.67;;
17214;SDS011;8723;51.502;6.918;2024-01-30T08:00:17;9.57;;;8.67;;
17214;SDS011;8723;51.502;6.918;2024-01-30T08:02:46;9.80;;;8.50;;
17214;SDS011;8723;51.502;6.918;2024-01-30T08:05:13;9.07;;;8.17;;
17214;SDS011;8723;51.502;6.918;2024-01-30T08:07:41;9.83;;;8.33;;
17214;SDS011;8723;51.502;6.918;2024-01-30T08:10:08;9.93;;;8.47;;
17214;SDS011;8723;51.502;6.918;2024-01-30T08:12:35;8.87;;;8.10;;
17214;SDS011;8723;51.502;6.918;2024-01-30T08:15:03;9.07;;;8.20;;
17214;SDS011;8723;51.502;6.918;2024-01-30T08:17:30;8.27;;;7.47;;
17214;SDS011;8723;51.502;6.918;2024-01-30T08:19:59;8.90;;;8.10;;
17214;SDS011;8723;51.502;6.918;2024-01-30T08:22:26;8.50;;;7.50;;
17214;SDS011;8723;51.502;6.918;2024-01-30T08:24:53;9.03;;;8.03;;
17214;SDS011;8723;51.502;6.918;2024-01-30T08:27:20;9.13;;;8.17;;
17214;SDS011;8723;51.502;6.918;2024-01-30T08:29:47;9.13;;;8.33;;
17214;SDS011;8723;51.502;6.918;2024-01-30T08:32:15;8.23;;;7.50;;
17214;SDS011;8723;51.502;6.918;2024-01-30T08:34:42;10.47;;;8.63;;
17214;SDS011;8723;51.502;6.918;2024-01-30T08:37:10;9.70;;;8.17;;
17214;SDS011;8723;51.502;6.918;2024-01-30T08:39:41;8.93;;;8.03;;
17214;SDS011;8723;51.502;6.918;2024-01-30T08:42:08;9.20;;;8.40;;
17214;SDS011;8723;51.502;6.918;2024-01-30T08:44:35;9.80;;;8.80;;
17214;SDS011;8723;51.502;6.918;2024-01-30T08:47:03;9.43;;;8.50;;
17214;SDS011;8723;51.502;6.918;2024-01-30T08:49:31;9.10;;;8.20;;
17214;SDS011;8723;51.502;6.918;2024-01-30T08:51:58;7.97;;;7.27;;
17214;SDS011;8723;51.502;6.918;2024-01-30T08:54:26;10.00;;;8.53;;
17214;SDS011;8723;51.502;6.918;2024-01-30T08:56:53;10.60;;;8.17;;
17214;SDS011;8723;51.502;6.918;2024-01-30T08:59:21;8.97;;;8.03;;
17214;SDS011;8723;51.502;6.918;2024-01-30T09:01:48;9.43;;;8.50;;
17214;SDS011;8723;51.502;6.918;2024-01-30T09:04:18;9.67;;;8.43;;
17214;SDS011;8723;51.502;6.918;2024-01-30T09:06:45;13.03;;;8.30;;
17214;SDS011;8723;51.502;6.918;2024-01-30T09:09:11;9.23;;;8.13;;
17214;SDS011;8723;51.502;6.918;2024-01-30T09:11:40;9.27;;;8.37;;
17214;SDS011;8723;51.502;6.918;2024-01-30T09:14:08;9.33;;;8.43;;
17214;SDS011;8723;51.502;6.918;2024-01-30T09:16:35;10.00;;;7.73;;
17214;SDS011;8723;51.502;6.918;2024-01-30T09:19:02;9.70;;;8.60;;
17214;SDS011;8723;51.502;6.918;2024-01-30T09:21:29;9.37;;;8.27;;
17214;SDS011;8723;51.502;6.918;2024-01-30T09:24:01;9.47;;;8.57;;
17214;SDS011;8723;51.502;6.918;2024-01-30T09:26:29;8.87;;;8.03;;
17214;SDS011;8723;51.502;6.918;2024-01-30T09:28:57;9.57;;;8.57;;
17214;SDS011;8723;51.502;6.918;2024-01-30T09:31:24;9.63;;;8.70;;
17214;SDS011;8723;51.502;6.918;2024-01-30T09:33:51;10.40;;;9.48;;
17214;SDS011;8723;51.502;6.918;2024-01-30T09:36:19;10.23;;;9.20;;
17214;SDS011;8723;51.502;6.918;2024-01-30T09:38:46;8.70;;;7.90;;
17214;SDS011;8723;51.502;6.918;2024-01-30T09:41:13;11.23;;;8.17;;
17214;SDS011;8723;51.502;6.918;2024-01-30T09:43:41;8.50;;;7.50;;
17214;SDS011;8723;51.502;6.918;2024-01-30T09:46:11;10.30;;;8.90;;
17214;SDS011;8723;51.502;6.918;2024-01-30T09:48:39;9.90;;;7.93;;
17214;SDS011;8723;51.502;6.918;2024-01-30T09:51:07;10.52;;;9.13;;
17214;SDS011;8723;51.502;6.918;2024-01-30T09:53:35;9.23;;;7.87;;
17214;SDS011;8723;51.502;6.918;2024-01-30T09:56:03;10.47;;;8.17;;
17214;SDS011;8723;51.502;6.918;2024-01-30T09:58:31;8.53;;;7.73;;
17214;SDS011;8723;51.502;6.918;2024-01-30T10:00:58;8.80;;;7.90;;
17214;SDS011;8723;51.502;6.918;2024-01-30T10:03:26;8.27;;;7.47;;
17214;SDS011;8723;51.502;6.918;2024-01-30T10:05:53;7.20;;;6.60;;
17214;SDS011;8723;51.502;6.918;2024-01-30T10:08:21;9.43;;;7.70;;
17214;SDS011;8723;51.502;6.918;2024-01-30T10:10:50;7.53;;;6.47;;
17214;SDS011;8723;51.502;6.918;2024-01-30T10:13:17;8.00;;;7.27;;
17214;SDS011;8723;51.502;6.918;2024-01-30T10:15:44;9.37;;;7.80;;
17214;SDS011;8723;51.502;6.918;2024-01-30T10:18:11;9.93;;;8.97;;
17214;SDS011;8723;51.502;6.918;2024-01-30T10:20:39;8.93;;;7.43;;
17214;SDS011;8723;51.502;6.918;2024-01-30T10:23:07;8.97;;;8.07;;
17214;SDS011;8723;51.502;6.918;2024-01-30T10:25:34;10.57;;;8.33;;
17214;SDS011;8723;51.502;6.918;2024-01-30T10:28:01;10.17;;;8.40;;
17214;SDS011;8723;51.502;6.918;2024-01-30T10:30:28;8.90;;;7.90;;
17214;SDS011;8723;51.502;6.918;2024-01-30T10:32:55;9.83;;;7.93;;
17214;SDS011;8723;51.502;6.918;2024-01-30T10:35:22;10.73;;;8.20;;
17214;SDS011;8723;51.502;6.918;2024-01-30T10:37:51;9.40;;;8.40;;
17214;SDS011;8723;51.502;6.918;2024-01-30T10:40:18;10.67;;;8.47;;
17214;SDS011;8723;51.502;6.918;2024-01-30T10:42:48;9.77;;;8.07;;
17214;SDS011;8723;51.502;6.918;2024-01-30T10:45:18;10.33;;;8.10;;
17214;SDS011;8723;51.502;6.918;2024-01-30T10:47:47;9.57;;;8.63;;
17214;SDS011;8723;51.502;6.918;2024-01-30T10:50:15;9.17;;;8.13;;
17214;SDS011;8723;51.502;6.918;2024-01-30T10:52:42;10.27;;;7.80;;
17214;SDS011;8723;51.502;6.918;2024-01-30T10:55:11;8.83;;;7.80;;
17214;SDS011;8723;51.502;6.918;2024-01-30T10:57:38;8.63;;;7.83;;
17214;SDS011;8723;51.502;6.918;2024-01-30T11:00:06;8.23;;;7.43;;
17214;SDS011;8723;51.502;6.918;2024-01-30T11:02:36;10.27;;;7.93;;
17214;SDS011;8723;51.502;6.918;2024-01-30T11:05:04;8.67;;;7.77;;
17214;SDS011;8723;51.502;6.918;2024-01-30T11:07:31;10.00;;;8.27;;
17214;SDS011;8723;51.502;6.918;2024-01-30T11:10:02;8.70;;;7.80;;
17214;SDS011;8723;51.502;6.918;2024-01-30T11:12:31;10.07;;;8.70;;
17214;SDS011;8723;51.502;6.918;2024-01-30T11:15:02;9.23;;;8.30;;
17214;SDS011;8723;51.502;6.918;2024-01-30T11:17:39;10.03;;;8.13;;
17214;SDS011;8723;51.502;6.918;2024-01-30T11:20:09;14.93;;;8.53;;
17214;SDS011;8723;51.502;6.918;2024-01-30T11:22:36;12.43;;;8.67;;
17214;SDS011;8723;51.502;6.918;2024-01-30T11:25:04;9.43;;;8.23;;
17214;SDS011;8723;51.502;6.918;2024-01-30T11:27:33;9.93;;;8.33;;
17214;SDS011;8723;51.502;6.918;2024-01-30T11:30:03;9.93;;;8.40;;
17214;SDS011;8723;51.502;6.918;2024-01-30T11:32:31;10.30;;;9.00;;
17214;SDS011;8723;51.502;6.918;2024-01-30T11:34:58;8.37;;;7.50;;
17214;SDS011;8723;51.502;6.918;2024-01-30T11:37:25;11.70;;;8.70;;
17214;SDS011;8723;51.502;6.918;2024-01-30T11:39:53;11.27;;;8.97;;
17214;SDS011;8723;51.502;6.918;2024-01-30T11:42:22;9.90;;;8.90;;
17214;SDS011;8723;51.502;6.918;2024-01-30T11:44:52;11.50;;;8.50;;
17214;SDS011;8723;51.502;6.918;2024-01-30T11:47:19;10.90;;;8.93;;
17214;SDS011;8723;51.502;6.918;2024-01-30T11:49:46;11.73;;;9.10;;
17214;SDS011;8723;51.502;6.918;2024-01-30T11:52:13;13.13;;;9.27;;
17214;SDS011;8723;51.502;6.918;2024-01-30T11:54:40;13.90;;;9.87;;
17214;SDS011;8723;51.502;6.918;2024-01-30T11:57:08;12.18;;;10.18;;
17214;SDS011;8723;51.502;6.918;2024-01-30T11:59:35;11.67;;;9.80;;
17214;SDS011;8723;51.502;6.918;2024-01-30T12:02:04;10.43;;;9.30;;
17214;SDS011;8723;51.502;6.918;2024-01-30T12:04:31;11.13;;;9.20;;
17214;SDS011;8723;51.502;6.918;2024-01-30T12:06:58;14.63;;;9.67;;
17214;SDS011;8723;51.502;6.918;2024-01-30T12:09:25;10.77;;;9.40;;
17214;SDS011;8723;51.502;6.918;2024-01-30T12:11:53;9.97;;;8.93;;
17214;SDS011;8723;51.502;6.918;2024-01-30T12:14:20;10.37;;;8.73;;
17214;SDS011;8723;51.502;6.918;2024-01-30T12:16:50;12.37;;;9.67;;
17214;SDS011;8723;51.502;6.918;2024-01-30T12:19:24;14.33;;;9.90;;
17214;SDS011;8723;51.502;6.918;2024-01-30T12:21:55;12.48;;;10.30;;
17214;SDS011;8723;51.502;6.918;2024-01-30T12:24:23;10.57;;;9.07;;
17214;SDS011;8723;51.502;6.918;2024-01-30T12:26:51;11.43;;;8.77;;
17214;SDS011;8723;51.502;6.918;2024-01-30T12:29:19;12.70;;;9.27;;
17214;SDS011;8723;51.502;6.918;2024-01-30T12:31:47;10.53;;;9.03;;
17214;SDS011;8723;51.502;6.918;2024-01-30T12:34:14;12.63;;;9.53;;
17214;SDS011;8723;51.502;6.918;2024-01-30T12:36:43;11.83;;;9.07;;
17214;SDS011;8723;51.502;6.918;2024-01-30T12:39:11;10.80;;;9.13;;
17214;SDS011;8723;51.502;6.918;2024-01-30T12:41:39;11.30;;;9.13;;
17214;SDS011;8723;51.502;6.918;2024-01-30T12:44:06;12.33;;;9.03;;
17214;SDS011;8723;51.502;6.918;2024-01-30T12:46:34;12.00;;;8.50;;
17214;SDS011;8723;51.502;6.918;2024-01-30T12:49:01;12.40;;;9.43;;
17214;SDS011;8723;51.502;6.918;2024-01-30T12:51:28;10.87;;;8.93;;
17214;SDS011;8723;51.502;6.918;2024-01-30T12:53:57;11.60;;;8.80;;
17214;SDS011;8723;51.502;6.918;2024-01-30T12:56:24;11.67;;;9.63;;
17214;SDS011;8723;51.502;6.918;2024-01-30T12:58:51;13.27;;;9.87;;
17214;SDS011;8723;51.502;6.918;2024-01-30T13:01:18;13.27;;;9.70;;
17214;SDS011;8723;51.502;6.918;2024-01-30T13:03:45;11.33;;;8.93;;
17214;SDS011;8723;51.502;6.918;2024-01-30T13:06:12;11.40;;;9.27;;
17214;SDS011;8723;51.502;6.918;2024-01-30T13:08:39;15.33;;;10.30;;
17214;SDS011;8723;51.502;6.918;2024-01-30T13:11:08;12.93;;;9.77;;
17214;SDS011;8723;51.502;6.918;2024-01-30T13:13:37;11.77;;;9.27;;
17214;SDS011;8723;51.502;6.918;2024-01-30T13:16:04;10.57;;;8.50;;
17214;SDS011;8723;51.502;6.918;2024-01-30T13:18:32;17.17;;;9.53;;
17214;SDS011;8723;51.502;6.918;2024-01-30T13:20:59;11.33;;;10.13;;
17214;SDS011;8723;51.502;6.918;2024-01-30T13:23:26;13.57;;;9.97;;
17214;SDS011;8723;51.502;6.918;2024-01-30T13:25:53;11.00;;;9.90;;
17214;SDS011;8723;51.502;6.918;2024-01-30T13:28:24;11.17;;;10.07;;
17214;SDS011;8723;51.502;6.918;2024-01-30T13:30:51;10.57;;;9.47;;
17214;SDS011;8723;51.502;6.918;2024-01-30T13:33:19;12.00;;;9.73;;
17214;SDS011;8723;51.502;6.918;2024-01-30T13:35:46;11.83;;;10.27;;
17214;SDS011;8723;51.502;6.918;2024-01-30T13:38:13;11.90;;;10.57;;
17214;SDS011;8723;51.502;6.918;2024-01-30T13:40:40;18.30;;;11.20;;
17214;SDS011;8723;51.502;6.918;2024-01-30T13:43:08;15.23;;;10.03;;
17214;SDS011;8723;51.502;6.918;2024-01-30T13:45:36;10.70;;;9.60;;
17214;SDS011;8723;51.502;6.918;2024-01-30T13:48:03;11.83;;;10.40;;
17214;SDS011;8723;51.502;6.918;2024-01-30T13:50:31;10.83;;;9.70;;
17214;SDS011;8723;51.502;6.918;2024-01-30T13:52:59;11.17;;;9.90;;
17214;SDS011;8723;51.502;6.918;2024-01-30T13:55:26;12.90;;;10.60;;
17214;SDS011;8723;51.502;6.918;2024-01-30T13:57:53;15.27;;;10.17;;
17214;SDS011;8723;51.502;6.918;2024-01-30T14:00:20;12.03;;;9.57;;
17214;SDS011;8723;51.502;6.918;2024-01-30T14:02:51;14.30;;;10.13;;
17214;SDS011;8723;51.502;6.918;2024-01-30T14:05:20;14.27;;;10.47;;
17214;SDS011;8723;51.502;6.918;2024-01-30T14:07:47;13.80;;;10.00;;
17214;SDS011;8723;51.502;6.918;2024-01-30T14:10:15;10.27;;;9.17;;
17214;SDS011;8723;51.502;6.918;2024-01-30T14:12:42;13.03;;;9.43;;
17214;SDS011;8723;51.502;6.918;2024-01-30T14:15:10;11.77;;;9.83;;
17214;SDS011;8723;51.502;6.918;2024-01-30T14:17:37;14.47;;;9.13;;
17214;SDS011;8723;51.502;6.918;2024-01-30T14:20:07;15.80;;;9.73;;
17214;SDS011;8723;51.502;6.918;2024-01-30T14:22:35;11.87;;;9.43;;
17214;SDS011;8723;51.502;6.918;2024-01-30T14:25:03;12.83;;;9.77;;
17214;SDS011;8723;51.502;6.918;2024-01-30T14:27:30;12.00;;;9.83;;
17214;SDS011;8723;51.502;6.918;2024-01-30T14:29:58;20.80;;;10.73;;
17214;SDS011;8723;51.502;6.918;2024-01-30T14:32:25;10.43;;;9.40;;
17214;SDS011;8723;51.502;6.918;2024-01-30T14:34:52;13.47;;;9.40;;
17214;SDS011;8723;51.502;6.918;2024-01-30T14:37:21;11.00;;;9.20;;
17214;SDS011;8723;51.502;6.918;2024-01-30T14:39:48;12.03;;;9.47;;
17214;SDS011;8723;51.502;6.918;2024-01-30T14:42:15;13.70;;;9.40;;
17214;SDS011;8723;51.502;6.918;2024-01-30T14:44:42;16.53;;;9.27;;
17214;SDS011;8723;51.502;6.918;2024-01-30T14:47:10;11.97;;;9.57;;
17214;SDS011;8723;51.502;6.918;2024-01-30T14:49:38;11.50;;;9.40;;
17214;SDS011;8723;51.502;6.918;2024-01-30T14:52:05;12.67;;;9.80;;